Pittsburg, NH

5:43 AM EST on December 10, 2016 (GMT -0500)
Pittsburg village | | Change Station

Elev 1362 ft 45.05 °N, 71.39 °W | Updated 3 minutes ago

Overcast
Overcast
10.7 °F
Feels Like 11 °F
N
1.0
Wind Variable Wind from NW
Gusts 1.0 mph

Today
High -- | Low -- °F
--% Chance of Precip.
Yesterday
High -- | Low -- °F
Precip. -- in
Pressure 30.19 in
Visibility 10.0 miles
Clouds Few 3400 ft
Windchill 11 °F
Dew Point 5 °F
Humidity 77%
Rainfall 0.00 in
Snow Depth Not available.
7:13 AM 4:03 PM
Waxing Gibbous, 82% visible
METAR KBML 100952Z AUTO VRB05KT 10SM FEW034 M10/M17 A3012 RMK AO2 SNB02E12 SLP221 P0000 T11001172
Pressure 30.19 in
Visibility 10.0 miles
Clouds Few 3400 ft
Windchill 11 °F
Dew Point 5 °F
Humidity 77%
Rainfall 0.00 in
Snow Depth Not available.
7:13 AM 4:03 PM
Waxing Gibbous, 82% visible
METAR KBML 100952Z AUTO VRB05KT 10SM FEW034 M10/M17 A3012 RMK AO2 SNB02E12 SLP221 P0000 T11001172

10-Day Weather Forecast

Almanac

Astronomy

Dec. 10, 2016 Rise Set
Actual Time
Civil Twilight
Nautical Twilight
Astronomical Twilight
Moon
Length of Visible Light
Length of Day
Tomorrow will be .
, % of the Moon is Illuminated

Today's Extremes

State Highs State Lows

Community

WunderPhotos

Upload Photos

1,956,536 photos uploaded!

WunderBlog® & News

Nearby

Air Quality

  Air Quality AQ Index Pollutant
Not available.

Snow Depth

Station Depth Elevation

Earthquake Activity

City Distance Mag. Time & Date
Minimum magnitude displayed is 2.5.

Coastal Water Temperatures

Place Temperature

Stations

Nearby Weather Stations

Station Location Temp. Windchill Dew Point Humidity Wind Precip. Elev Updated Type
                   

Watches & Warnings

There are currently no watches in effect.